Time;durP1;ratioP1;P1;durP2;ratioP2;P2;SDS_P1;SDS_P2;PMS_P1;PMS_P2;Temp;Humidity;BMP_temperature;BMP_pressure;BME280_temperature;BME280_humidity;BME280_pressure;Samples;Min_cycle;Max_cycle;Signal;HPM_P1;HPM_P2
2021/06/24 00:00:06;;;;;;;0.85;0.50;;;;;;;23.38;74.15;100141.47;6093024;23;20085;-81
2021/06/24 00:02:35;;;;;;;1.17;0.40;;;;;;;23.30;73.37;100141.75;6114552;23;20026;-80
2021/06/24 00:05:01;;;;;;;1.45;0.43;;;;;;;23.24;74.01;100140.69;6093471;23;20022;-80
2021/06/24 00:07:27;;;;;;;1.10;0.60;;;;;;;23.27;73.25;100132.00;6067036;23;20033;-80
2021/06/24 00:09:53;;;;;;;0.98;0.50;;;;;;;23.35;73.65;100145.50;6066834;23;20360;-79
2021/06/24 00:12:21;;;;;;;1.52;0.52;;;;;;;23.36;73.67;100143.59;6114170;23;20038;-80
2021/06/24 00:14:47;;;;;;;0.88;0.40;;;;;;;23.39;73.83;100142.31;6092264;23;20022;-79
2021/06/24 00:17:13;;;;;;;0.70;0.40;;;;;;;23.41;73.36;100142.94;6089959;23;20034;-78
2021/06/24 00:19:39;;;;;;;0.93;0.68;;;;;;;23.38;73.93;100140.63;6093007;23;20030;-79
2021/06/24 00:22:05;;;;;;;0.77;0.40;;;;;;;23.34;73.99;100141.06;6092262;23;20041;-81
2021/06/24 00:24:31;;;;;;;1.00;0.50;;;;;;;23.32;74.31;100140.44;6092284;23;20034;-79
2021/06/24 00:26:57;;;;;;;1.23;0.43;;;;;;;23.27;74.31;100143.03;6092656;23;20101;-79
2021/06/24 00:29:23;;;;;;;1.58;0.60;;;;;;;23.23;74.47;100136.25;6090078;23;20014;-78
2021/06/24 00:31:49;;;;;;;0.85;0.50;;;;;;;23.20;74.81;100153.25;6065312;23;20120;-79
2021/06/24 00:34:14;;;;;;;1.33;0.60;;;;;;;23.12;75.32;100155.44;6089716;23;20129;-80
2021/06/24 00:36:40;;;;;;;1.23;0.50;;;;;;;23.08;75.29;100160.56;6090749;23;20026;-78
2021/06/24 00:39:06;;;;;;;1.13;0.60;;;;;;;22.91;76.32;100159.31;6072219;23;20038;-80
2021/06/24 00:41:32;;;;;;;1.33;0.60;;;;;;;22.88;76.31;100166.97;6104800;23;20110;-80
2021/06/24 00:44:00;;;;;;;0.80;0.50;;;;;;;22.85;76.37;100167.41;6057520;23;20029;-78
2021/06/24 00:46:26;;;;;;;0.77;0.50;;;;;;;22.86;76.41;100169.09;6107217;23;20023;-77
2021/06/24 00:48:56;;;;;;;0.60;0.50;;;;;;;22.87;76.16;100162.50;6080540;23;20045;-78
2021/06/24 00:51:23;;;;;;;1.08;0.60;;;;;;;22.90;75.47;100160.41;6103790;23;20022;-77
2021/06/24 00:53:50;;;;;;;1.15;0.60;;;;;;;22.90;74.93;100158.47;6105240;23;20074;-79
2021/06/24 00:56:26;;;;;;;1.10;0.50;;;;;;;23.01;74.67;100170.78;6104548;23;20053;-79
2021/06/24 00:58:53;;;;;;;0.60;0.52;;;;;;;23.02;75.07;100164.19;6101493;23;20058;-78
2021/06/24 01:01:19;;;;;;;0.77;0.50;;;;;;;23.04;75.43;100173.94;6102857;23;20215;-78
2021/06/24 01:03:44;;;;;;;1.05;0.65;;;;;;;23.01;75.76;100174.38;6080249;23;20411;-78
2021/06/24 01:06:11;;;;;;;0.60;0.40;;;;;;;23.02;75.53;100177.97;6078532;23;20022;-79
2021/06/24 01:08:37;;;;;;;0.80;0.40;;;;;;;23.02;75.53;100177.97;6090536;23;20329;-78
2021/06/24 01:11:09;;;;;;;0.60;0.50;;;;;;;23.00;75.73;100180.09;6065886;23;20041;-79
2021/06/24 01:13:35;;;;;;;0.90;0.47;;;;;;;22.97;75.55;100186.06;6089727;23;20042;-80
2021/06/24 01:16:02;;;;;;;1.13;0.65;;;;;;;23.02;75.53;100177.97;6066426;23;20149;-79
2021/06/24 01:18:29;;;;;;;1.58;0.50;;;;;;;22.95;75.85;100183.50;6066807;23;20026;-78
2021/06/24 01:20:59;;;;;;;0.52;0.40;;;;;;;22.88;75.92;100183.50;6090992;23;20065;-79
2021/06/24 01:23:25;;;;;;;0.68;0.43;;;;;;;22.94;75.15;100186.50;6065364;23;20096;-78
2021/06/24 01:25:54;;;;;;;1.38;0.50;;;;;;;22.92;75.40;100186.69;6089335;23;20026;-80
2021/06/24 01:28:20;;;;;;;1.48;0.50;;;;;;;22.93;75.61;100180.16;6064808;23;20026;-78
2021/06/24 01:30:46;;;;;;;0.60;0.50;;;;;;;22.86;75.24;100185.66;6064845;23;20101;-78
2021/06/24 01:33:14;;;;;;;0.57;0.40;;;;;;;22.83;75.71;100180.56;6088550;23;20053;-80
2021/06/24 01:35:41;;;;;;;1.02;0.50;;;;;;;22.76;75.82;100179.75;6065561;23;20022;-77
2021/06/24 01:38:10;;;;;;;0.43;0.40;;;;;;;22.54;76.47;100175.59;6089581;23;20029;-78
2021/06/24 01:40:43;;;;;;;0.88;0.55;;;;;;;22.55;76.48;100172.59;6090154;23;20018;-79
2021/06/24 01:43:28;;;;;;;0.70;0.40;;;;;;;22.51;76.64;100176.00;6089380;23;20048;-78
2021/06/24 01:45:56;;;;;;;0.77;0.50;;;;;;;22.47;76.21;100177.50;6065898;23;20023;-81
2021/06/24 01:48:24;;;;;;;0.95;0.32;;;;;;;22.50;76.28;100179.84;6090705;23;20086;-78
2021/06/24 01:50:53;;;;;;;0.60;0.40;;;;;;;22.57;76.16;100177.91;6089563;23;20053;-78
2021/06/24 01:53:19;;;;;;;1.13;0.60;;;;;;;22.67;75.86;100186.56;6065399;23;20026;-78
2021/06/24 01:55:46;;;;;;;1.58;0.60;;;;;;;22.71;75.20;100182.31;6064962;23;20018;-79
2021/06/24 01:58:22;;;;;;;1.10;0.50;;;;;;;22.76;75.48;100184.41;6089768;23;20030;-79
2021/06/24 02:01:08;;;;;;;0.73;0.50;;;;;;;22.74;75.07;100181.84;6082173;23;20651;-77
2021/06/24 02:03:43;;;;;;;1.13;0.70;;;;;;;22.77;74.85;100186.94;6065702;23;20069;-78
2021/06/24 02:06:09;;;;;;;0.93;0.63;;;;;;;22.78;74.65;100187.78;6091438;23;20030;-78
2021/06/24 02:08:37;;;;;;;0.52;0.40;;;;;;;22.79;74.88;100189.50;6089721;23;20022;-78
2021/06/24 02:11:18;;;;;;;0.70;0.60;;;;;;;22.78;74.47;100194.16;6089423;23;20049;-79
2021/06/24 02:13:47;;;;;;;0.63;0.50;;;;;;;22.77;74.59;100195.22;6090259;23;20019;-79
2021/06/24 02:16:13;;;;;;;1.92;0.50;;;;;;;22.81;74.16;100193.72;6113431;23;20045;-79
2021/06/24 02:18:52;;;;;;;1.50;0.50;;;;;;;22.86;73.89;100187.56;6089638;23;20085;-80
2021/06/24 02:21:28;;;;;;;0.47;0.40;;;;;;;22.92;73.54;100188.63;6064983;23;20356;-79
2021/06/24 02:23:59;;;;;;;1.10;0.55;;;;;;;23.05;73.12;100185.81;6088985;23;20032;-79
2021/06/24 02:26:28;;;;;;;0.65;0.50;;;;;;;23.15;72.70;100183.44;6065154;23;20033;-79
2021/06/24 02:29:03;;;;;;;1.42;0.70;;;;;;;23.24;72.73;100181.25;6065480;23;20014;-79
2021/06/24 02:31:30;;;;;;;0.60;0.50;;;;;;;23.32;72.34;100184.56;6065448;23;20057;-79
2021/06/24 02:34:02;;;;;;;0.70;0.50;;;;;;;23.40;72.17;100190.91;6064958;23;20018;-79
2021/06/24 02:36:43;;;;;;;2.05;0.68;;;;;;;23.45;72.35;100193.84;6090063;23;20022;-78
2021/06/24 02:39:11;;;;;;;1.70;0.65;;;;;;;23.46;72.42;100190.88;6088964;23;20022;-79
2021/06/24 02:41:37;;;;;;;1.50;0.60;;;;;;;23.45;71.94;100189.19;6064273;23;20022;-78
2021/06/24 02:44:05;;;;;;;0.73;0.50;;;;;;;23.54;71.64;100195.28;6064679;23;20029;-79
2021/06/24 02:46:31;;;;;;;1.33;0.60;;;;;;;23.54;71.94;100192.50;6091564;23;20026;-79
2021/06/24 02:48:57;;;;;;;0.73;0.50;;;;;;;23.69;70.90;100184.78;6088910;23;20044;-79
2021/06/24 02:51:37;;;;;;;0.85;0.52;;;;;;;23.77;70.75;100181.78;6089066;23;20077;-80
2021/06/24 02:54:18;;;;;;;0.88;0.50;;;;;;;23.79;70.41;100174.09;6089230;23;20089;-79
2021/06/24 02:56:48;;;;;;;0.65;0.50;;;;;;;23.81;70.61;100177.47;6112131;23;20085;-80
2021/06/24 02:59:32;;;;;;;0.73;0.60;;;;;;;23.88;70.58;100176.56;6091557;23;20018;-79
2021/06/24 03:02:01;;;;;;;1.13;0.60;;;;;;;23.96;70.29;100181.81;6066373;23;20026;-78
2021/06/24 03:04:31;;;;;;;0.88;0.65;;;;;;;23.97;70.31;100180.75;6113969;23;20120;-78
2021/06/24 03:06:57;;;;;;;0.93;0.50;;;;;;;24.10;70.20;100172.34;6093033;23;20022;-78
2021/06/24 03:09:28;;;;;;;1.10;0.65;;;;;;;24.29;69.38;100174.06;6091210;23;20018;-79
2021/06/24 03:11:54;;;;;;;0.98;0.60;;;;;;;24.32;68.59;100177.47;6092768;23;20348;-80
2021/06/24 03:14:22;;;;;;;1.05;0.52;;;;;;;24.48;68.36;100182.41;6090607;23;20022;-80
2021/06/24 03:16:49;;;;;;;0.90;0.50;;;;;;;24.72;67.86;100172.34;6091222;23;20022;-82
2021/06/24 03:19:19;;;;;;;0.95;0.50;;;;;;;24.94;66.96;100186.56;6091827;23;20023;-80
2021/06/24 03:22:03;;;;;;;0.82;0.60;;;;;;;25.19;66.26;100186.44;6090807;23;20109;-79
2021/06/24 03:24:37;;;;;;;0.52;0.50;;;;;;;25.36;64.99;100183.88;6068058;23;20108;-78
2021/06/24 03:27:06;;;;;;;1.48;0.73;;;;;;;25.56;65.02;100184.44;6091446;23;20354;-79
2021/06/24 03:29:35;;;;;;;0.75;0.60;;;;;;;25.67;64.12;100178.06;6066440;23;20460;-79
2021/06/24 03:32:02;;;;;;;0.88;0.60;;;;;;;25.96;64.04;100189.31;6090563;23;20358;-79
2021/06/24 03:34:30;;;;;;;1.65;0.70;;;;;;;26.11;63.60;100191.66;6067119;23;20045;-79
2021/06/24 03:36:57;;;;;;;1.08;0.50;;;;;;;26.10;62.88;100179.69;6093289;23;20045;-79
2021/06/24 03:39:29;;;;;;;;;;;;;;;26.32;62.30;100176.34;6045141;23;20222;-77
2021/06/24 03:41:57;;;;;;;0.85;0.50;;;;;;;26.42;62.41;100176.56;6090578;23;19921;-79
2021/06/24 03:44:23;;;;;;;0.80;0.68;;;;;;;26.55;62.59;100179.13;6092063;23;20480;-78
2021/06/24 03:46:50;;;;;;;0.65;0.57;;;;;;;26.72;62.03;100170.03;6092848;23;20135;-80
2021/06/24 03:49:16;;;;;;;0.80;0.60;;;;;;;26.89;61.36;100166.25;6044164;23;20053;-79
2021/06/24 03:51:42;;;;;;;1.02;0.60;;;;;;;27.26;59.87;100178.94;6092970;23;20437;-79
2021/06/24 03:54:09;;;;;;;0.80;0.55;;;;;;;27.52;59.39;100178.31;6090021;23;20338;-79
2021/06/24 03:56:38;;;;;;;0.70;0.50;;;;;;;27.79;58.72;100175.81;6090302;23;20048;-81
2021/06/24 03:59:18;;;;;;;1.20;0.60;;;;;;;28.07;57.67;100171.22;6071272;23;20018;-82
2021/06/24 04:01:48;;;;;;;0.85;0.65;;;;;;;28.28;57.54;100172.41;6069412;23;20036;-80
2021/06/24 04:04:14;;;;;;;1.17;0.57;;;;;;;28.52;56.25;100162.78;6091833;23;20105;-79
2021/06/24 04:06:53;;;;;;;1.10;0.68;;;;;;;28.78;55.95;100168.69;6069547;23;20018;-77
2021/06/24 04:09:20;;;;;;;0.50;0.50;;;;;;;29.04;54.21;100162.34;6067774;23;20117;-80
2021/06/24 04:11:47;;;;;;;1.00;0.60;;;;;;;29.41;53.20;100170.00;6091164;23;20029;-78
2021/06/24 04:14:31;;;;;;;1.35;0.70;;;;;;;29.66;51.64;100169.44;6066927;23;20032;-80
2021/06/24 04:17:05;;;;;;;1.35;0.60;;;;;;;29.95;51.26;100175.53;6067950;23;20026;-80
2021/06/24 04:19:32;;;;;;;0.50;0.50;;;;;;;30.18;50.56;100174.34;6091610;23;20033;-82
2021/06/24 04:22:00;;;;;;;1.30;0.60;;;;;;;30.36;50.54;100175.84;6092524;23;20032;-81
2021/06/24 04:24:42;;;;;;;1.77;0.65;;;;;;;30.52;50.38;100169.25;6074588;23;20026;-82
2021/06/24 04:27:08;;;;;;;1.92;0.70;;;;;;;30.61;49.42;100160.38;6096144;23;20046;-81
2021/06/24 04:29:36;;;;;;;1.25;0.60;;;;;;;30.74;49.43;100165.44;6094137;23;20481;-81
2021/06/24 04:32:07;;;;;;;1.00;0.60;;;;;;;30.90;49.52;100167.25;6045812;23;20081;-80
2021/06/24 04:34:35;;;;;;;1.25;0.60;;;;;;;31.07;48.86;100157.78;6092114;23;20187;-79
2021/06/24 04:37:07;;;;;;;0.90;0.70;;;;;;;30.89;48.26;100153.53;6070707;23;20029;-79
2021/06/24 04:39:35;;;;;;;0.82;0.60;;;;;;;30.93;49.20;100149.06;6074663;23;20033;-80
2021/06/24 04:42:06;;;;;;;1.00;0.40;;;;;;;30.82;49.52;100159.38;6098310;23;20029;-83
2021/06/24 04:44:40;;;;;;;0.52;0.50;;;;;;;30.67;49.11;100159.28;6067551;23;20061;-80
2021/06/24 04:47:11;;;;;;;0.70;0.50;;;;;;;30.75;47.88;100155.97;6090159;23;20025;-81
2021/06/24 04:49:37;;;;;;;0.75;0.60;;;;;;;30.90;47.31;100158.88;6068501;23;20026;-78
2021/06/24 04:52:20;;;;;;;0.60;0.60;;;;;;;31.17;47.31;100158.66;6043878;23;20022;-79
2021/06/24 04:55:07;;;;;;;0.93;0.57;;;;;;;31.55;46.35;100161.28;6112304;23;20026;-80
2021/06/24 04:57:39;;;;;;;1.47;0.67;;;;;;;31.93;45.50;100160.78;6046836;23;20117;-83
2021/06/24 05:00:36;;;;;;;0.75;0.60;;;;;;;32.58;44.82;100154.50;6093465;23;20045;-82
2021/06/24 05:03:24;;;;;;;0.57;0.52;;;;;;;32.92;44.00;100165.88;6070891;23;20461;-78
2021/06/24 05:05:53;;;;;;;0.65;0.52;;;;;;;33.00;42.98;100170.06;6066674;23;20466;-80
2021/06/24 05:08:27;;;;;;;0.60;0.60;;;;;;;33.50;42.10;100165.34;6068227;23;20369;-77
2021/06/24 05:10:56;;;;;;;0.60;0.60;;;;;;;33.62;41.58;100171.41;6092040;23;20364;-79
2021/06/24 05:13:26;;;;;;;1.30;0.50;;;;;;;34.08;41.29;100165.47;6093289;23;20044;-79
2021/06/24 05:15:54;;;;;;;1.15;0.65;;;;;;;34.38;41.18;100174.72;6067754;23;20033;-81
2021/06/24 05:18:20;;;;;;;0.90;0.60;;;;;;;34.65;40.63;100174.97;6094366;23;20033;-81
2021/06/24 05:20:47;;;;;;;1.35;0.70;;;;;;;34.80;40.83;100163.53;6094024;23;20121;-80
2021/06/24 05:23:18;;;;;;;0.50;0.50;;;;;;;34.82;40.06;100156.81;6084087;23;20081;-80
2021/06/24 05:25:46;;;;;;;0.90;0.60;;;;;;;34.95;39.33;100161.69;6066615;23;20408;-79
2021/06/24 05:28:12;;;;;;;0.63;0.60;;;;;;;34.71;37.82;100168.16;6090621;23;20349;-82
2021/06/24 05:30:38;;;;;;;0.60;0.60;;;;;;;34.18;39.96;100158.88;6092864;23;20022;-81
2021/06/24 05:33:05;;;;;;;0.50;0.50;;;;;;;34.28;40.04;100159.63;6068541;23;20010;-84
2021/06/24 05:35:32;;;;;;;0.93;0.68;;;;;;;34.32;36.94;100155.09;6071449;23;20528;-81
2021/06/24 05:38:00;;;;;;;0.73;0.70;;;;;;;34.65;38.51;100163.75;6064682;23;20101;-80
2021/06/24 05:40:26;;;;;;;0.50;0.50;;;;;;;34.94;37.17;100154.41;6088796;23;20069;-82
2021/06/24 05:42:55;;;;;;;0.70;0.60;;;;;;;35.27;36.98;100150.59;6089083;23;20019;-80
2021/06/24 05:45:27;;;;;;;1.00;0.70;;;;;;;35.79;36.43;100153.44;6088457;23;20077;-78
2021/06/24 05:47:55;;;;;;;1.38;0.80;;;;;;;36.30;35.55;100158.22;6088883;23;20023;-79
2021/06/24 05:50:25;;;;;;;1.02;0.70;;;;;;;36.31;36.47;100159.03;6066554;23;20049;-81
2021/06/24 05:52:56;;;;;;;1.02;0.60;;;;;;;36.45;36.23;100159.88;6090941;23;20049;-80
2021/06/24 05:56:06;;;;;;;0.75;0.57;;;;;;;36.70;36.47;100148.13;6092316;23;20071;-82
2021/06/24 05:58:26;;;;;;;1.08;0.70;;;;;;;37.08;34.98;100145.13;6068025;23;20029;-82
2021/06/24 06:00:59;;;;;;;0.60;0.60;;;;;;;37.48;33.25;100145.34;6098652;23;20025;-82
2021/06/24 06:03:27;;;;;;;0.70;0.70;;;;;;;37.41;32.62;100136.47;6086556;23;20050;-84
2021/06/24 06:05:54;;;;;;;1.13;0.60;;;;;;;37.05;32.34;100145.75;6064743;23;20528;-82
2021/06/24 06:08:22;;;;;;;0.60;0.60;;;;;;;36.94;31.56;100149.91;6091128;23;20022;-82
2021/06/24 06:10:52;;;;;;;0.70;0.70;;;;;;;37.37;31.45;100152.34;6047031;23;20022;-81
2021/06/24 06:13:23;;;;;;;0.80;0.80;;;;;;;37.90;30.71;100154.50;6089312;23;20076;-80
2021/06/24 06:15:58;;;;;;;0.83;0.80;;;;;;;38.29;30.29;100155.72;6066713;23;20061;-78
2021/06/24 06:18:25;;;;;;;0.60;0.60;;;;;;;38.55;29.45;100155.88;6109910;23;20036;-81
2021/06/24 06:20:53;;;;;;;0.88;0.70;;;;;;;38.85;29.05;100150.53;6068528;23;20023;-81
2021/06/24 06:23:21;;;;;;;0.70;0.70;;;;;;;39.01;28.49;100146.88;6068077;23;20062;-80
2021/06/24 06:25:48;;;;;;;0.70;0.70;;;;;;;38.92;28.95;100146.03;6045662;23;20014;-81
2021/06/24 06:28:16;;;;;;;0.73;0.63;;;;;;;38.75;29.85;100154.44;6070140;23;20038;-81
2021/06/24 06:30:43;;;;;;;0.70;0.70;;;;;;;39.07;29.14;100156.88;6044289;23;20015;-80
2021/06/24 06:33:09;;;;;;;0.80;0.80;;;;;;;39.33;30.25;100141.97;6037451;23;20037;-80
2021/06/24 06:35:36;;;;;;;0.77;0.77;;;;;;;39.81;29.27;100149.47;6064072;23;20023;-80
2021/06/24 06:38:03;;;;;;;0.85;0.85;;;;;;;40.25;28.42;100141.72;6039998;23;20048;-81
2021/06/24 06:40:29;;;;;;;0.95;0.90;;;;;;;40.45;27.49;100141.00;6039459;23;20054;-81
2021/06/24 06:42:55;;;;;;;1.25;0.80;;;;;;;40.69;27.71;100145.25;6039818;23;20042;-80
2021/06/24 06:45:24;;;;;;;0.80;0.80;;;;;;;40.55;27.68;100144.63;6065784;23;20059;-81
2021/06/24 06:47:50;;;;;;;1.10;1.00;;;;;;;40.82;26.46;100144.19;6039024;23;20102;-83
2021/06/24 06:50:16;;;;;;;0.70;0.70;;;;;;;40.14;25.60;100140.44;6066863;23;20033;-80
2021/06/24 06:52:43;;;;;;;0.80;0.80;;;;;;;39.47;27.49;100150.31;6038608;23;20034;-80
2021/06/24 06:55:10;;;;;;;0.98;0.90;;;;;;;39.95;26.94;100143.63;6087886;23;20061;-81
2021/06/24 06:57:37;;;;;;;0.90;0.90;;;;;;;40.17;25.68;100142.59;6065277;23;20043;-79
2021/06/24 07:00:08;;;;;;;1.00;0.90;;;;;;;40.45;26.37;100141.00;6065316;23;20049;-81
2021/06/24 07:02:34;;;;;;;;;;;;;;;39.97;26.23;100136.47;6067553;23;20026;-82
2021/06/24 07:05:00;;;;;;;0.90;0.90;;;;;;;39.46;27.44;100143.00;6062945;23;20004;-80
2021/06/24 07:07:27;;;;;;;0.80;0.80;;;;;;;39.85;26.83;100139.13;6038130;23;20071;-79
2021/06/24 07:09:53;;;;;;;1.08;0.90;;;;;;;40.74;25.58;100139.41;6086642;23;20026;-81
2021/06/24 07:12:20;;;;;;;0.80;0.80;;;;;;;39.37;26.77;100140.13;6063994;23;20026;-82
2021/06/24 07:14:48;;;;;;;0.80;0.80;;;;;;;39.26;26.75;100142.47;6066008;23;20081;-81
2021/06/24 07:17:14;;;;;;;1.20;1.10;;;;;;;39.58;25.92;100133.81;6037588;23;20229;-80
2021/06/24 07:19:41;;;;;;;0.90;0.90;;;;;;;39.40;26.69;100138.66;6066761;23;20190;-82
2021/06/24 07:22:07;;;;;;;0.80;0.80;;;;;;;39.21;26.70;100136.94;6040198;23;20097;-78
2021/06/24 07:24:33;;;;;;;1.00;1.00;;;;;;;39.70;26.62;100131.16;6016849;23;20042;-79
2021/06/24 07:27:00;;;;;;;0.90;0.90;;;;;;;39.96;26.48;100134.78;6041036;23;20048;-83
2021/06/24 07:29:27;;;;;;;1.00;0.90;;;;;;;40.13;25.70;100131.13;6025203;23;20022;-82
2021/06/24 07:31:54;;;;;;;1.00;1.00;;;;;;;41.32;24.46;100134.00;6038643;23;20102;-83
2021/06/24 07:34:21;;;;;;;1.08;1.08;;;;;;;41.77;23.97;100128.47;6044069;23;20140;-83
2021/06/24 07:36:49;;;;;;;0.90;0.90;;;;;;;40.34;25.36;100134.03;6044561;23;20022;-83
2021/06/24 07:39:16;;;;;;;1.05;1.05;;;;;;;40.50;25.32;100126.63;6070945;23;20091;-82
2021/06/24 07:41:43;;;;;;;0.90;0.90;;;;;;;40.19;25.62;100115.59;6066095;23;20047;-83
2021/06/24 07:44:09;;;;;;;1.10;1.10;;;;;;;40.50;25.43;100118.13;6041399;23;20457;-82
2021/06/24 07:46:37;;;;;;;1.00;1.00;;;;;;;40.48;25.25;100116.78;6070875;23;20033;-82
2021/06/24 07:49:04;;;;;;;1.05;1.05;;;;;;;42.12;23.88;100120.41;6041888;23;20050;-82
2021/06/24 07:51:32;;;;;;;1.00;1.00;;;;;;;41.79;24.50;100113.91;6041134;23;20022;-82
2021/06/24 07:53:58;;;;;;;0.98;0.98;;;;;;;41.71;24.71;100118.50;6068091;23;20118;-81
2021/06/24 07:56:24;;;;;;;1.10;1.10;;;;;;;41.78;24.65;100117.94;6017163;23;20026;-83
2021/06/24 07:58:53;;;;;;;1.27;1.17;;;;;;;42.45;23.70;100115.88;6044253;23;20023;-81
2021/06/24 08:01:19;;;;;;;0.90;0.90;;;;;;;41.38;24.50;100116.44;6021349;23;20450;-84
2021/06/24 08:03:46;;;;;;;1.15;1.10;;;;;;;41.40;25.04;100108.41;6042325;23;20026;-82
2021/06/24 08:06:12;;;;;;;0.93;0.93;;;;;;;41.00;25.91;100110.91;6089260;23;20029;-80
2021/06/24 08:08:39;;;;;;;1.20;1.10;;;;;;;41.51;25.48;100108.03;6042795;23;20057;-81
2021/06/24 08:11:05;;;;;;;1.20;1.10;;;;;;;42.33;24.43;100106.16;6041127;23;20018;-83
2021/06/24 08:13:31;;;;;;;1.10;1.10;;;;;;;41.48;25.75;100091.69;6040759;23;20062;-82
2021/06/24 08:15:58;;;;;;;2.25;2.15;;;;;;;41.04;25.46;100105.38;6019312;23;20019;-83
2021/06/24 08:18:24;;;;;;;0.95;0.95;;;;;;;40.56;26.07;100100.94;6041335;23;20213;-82
2021/06/24 08:20:51;;;;;;;1.10;1.10;;;;;;;41.57;25.28;100106.59;6016329;23;20029;-81
2021/06/24 08:23:19;;;;;;;1.48;1.10;;;;;;;41.44;25.04;100098.06;6064935;23;20029;-82
2021/06/24 08:25:46;;;;;;;1.10;1.10;;;;;;;40.77;25.69;100104.66;6018314;23;20057;-82
2021/06/24 08:28:12;;;;;;;1.30;1.20;;;;;;;42.14;24.47;100109.53;6041189;23;20018;-82
2021/06/24 08:30:43;;;;;;;1.08;1.08;;;;;;;41.02;25.53;100102.03;6018653;23;20029;-81
2021/06/24 08:33:11;;;;;;;1.15;1.15;;;;;;;40.37;25.65;100102.19;6037928;23;20026;-81
2021/06/24 08:35:38;;;;;;;1.10;1.10;;;;;;;41.53;24.56;100105.66;5970503;23;20027;-83
2021/06/24 08:38:04;;;;;;;1.42;1.30;;;;;;;42.40;23.53;100111.25;6066869;23;20019;-82
2021/06/24 08:40:31;;;;;;;1.00;1.00;;;;;;;43.52;22.35;100099.44;6065300;23;20025;-82
2021/06/24 08:42:57;;;;;;;1.10;1.10;;;;;;;43.37;22.46;100103.84;6014821;23;20026;-81
2021/06/24 08:45:23;;;;;;;1.10;1.10;;;;;;;44.05;22.32;100106.63;6065816;23;20083;-81
2021/06/24 08:47:51;;;;;;;1.15;1.05;;;;;;;44.77;21.13;100107.69;6094713;23;20027;-83
2021/06/24 08:50:18;;;;;;;1.17;1.15;;;;;;;43.95;22.17;100106.34;6050373;23;20022;-83
2021/06/24 08:52:49;;;;;;;1.10;1.10;;;;;;;43.39;22.63;100106.31;6070980;23;20094;-80
2021/06/24 08:55:20;;;;;;;1.05;1.05;;;;;;;43.12;22.44;100107.94;6048227;23;20054;-82
2021/06/24 08:57:48;;;;;;;1.05;1.05;;;;;;;41.55;23.90;100104.13;6044965;23;20019;-82
2021/06/24 09:00:16;;;;;;;1.20;1.20;;;;;;;41.54;24.23;100110.13;6022846;23;20019;-82
2021/06/24 09:02:46;;;;;;;1.30;1.20;;;;;;;42.56;22.94;100108.53;6049134;23;20383;-82
2021/06/24 09:05:13;;;;;;;1.05;1.05;;;;;;;42.89;22.48;100096.22;6051933;23;20038;-84
2021/06/24 09:07:51;;;;;;;1.20;1.10;;;;;;;43.93;21.63;100100.19;6050039;23;20082;-82
2021/06/24 09:10:21;;;;;;;1.10;1.10;;;;;;;43.72;22.16;100092.66;6000071;23;20050;-84
2021/06/24 09:12:55;;;;;;;1.05;1.05;;;;;;;44.45;21.75;100087.72;6075376;23;20015;-84
2021/06/24 09:15:23;;;;;;;1.13;1.13;;;;;;;43.68;21.52;100091.75;6094846;23;20027;-84
2021/06/24 09:17:51;;;;;;;0.98;0.98;;;;;;;42.58;22.67;100094.78;6056637;23;20106;-84
2021/06/24 09:20:24;;;;;;;1.10;1.10;;;;;;;42.18;22.78;100092.63;6052766;23;20029;-82
2021/06/24 09:23:11;;;;;;;0.95;0.95;;;;;;;43.84;21.36;100088.91;6033037;23;20026;-82
2021/06/24 09:25:43;;;;;;;1.02;1.02;;;;;;;42.21;22.63;100091.91;6079875;23;20023;-83
2021/06/24 09:28:11;;;;;;;0.98;0.98;;;;;;;42.71;22.42;100099.34;6009280;23;20117;-85
2021/06/24 09:30:41;;;;;;;1.10;1.10;;;;;;;43.00;22.28;100092.50;6030274;23;20034;-83
2021/06/24 09:33:16;;;;;;;1.10;1.10;;;;;;;42.04;23.66;100097.78;6091165;23;20030;-82
2021/06/24 09:36:03;;;;;;;0.93;0.93;;;;;;;43.37;22.16;100091.59;6049856;23;20339;-81
2021/06/24 09:38:42;;;;;;;1.10;1.10;;;;;;;42.84;22.70;100086.72;6059491;23;20042;-84
2021/06/24 09:41:16;;;;;;;1.20;1.10;;;;;;;44.16;21.76;100080.44;6053054;23;20114;-85
2021/06/24 09:43:45;;;;;;;0.90;0.90;;;;;;;44.66;20.47;100084.56;6102391;23;20026;-84
2021/06/24 09:46:14;;;;;;;1.13;1.08;;;;;;;45.21;19.95;100080.59;6071582;23;20026;-82
2021/06/24 09:48:43;;;;;;;1.05;1.05;;;;;;;45.91;20.07;100078.78;6077525;23;20018;-84
2021/06/24 09:51:16;;;;;;;0.80;0.80;;;;;;;45.31;20.19;100072.59;6086061;23;20023;-84
2021/06/24 09:53:48;;;;;;;1.02;0.98;;;;;;;44.51;20.68;100066.28;6059977;23;20010;-84
2021/06/24 09:59:18;;;;;;;0.90;0.90;;;;;;;43.49;21.61;100074.50;6055195;23;20042;-84
2021/06/24 10:01:48;;;;;;;0.95;0.95;;;;;;;41.59;23.97;100073.03;6025094;23;20019;-82
2021/06/24 10:04:21;;;;;;;1.05;1.05;;;;;;;41.39;24.32;100077.53;5985199;23;20075;-83
2021/06/24 10:06:54;;;;;;;0.70;0.70;;;;;;;41.16;24.72;100079.91;6031514;23;20023;-83
2021/06/24 10:09:23;;;;;;;0.90;0.90;;;;;;;40.12;25.72;100074.78;6012954;23;20050;-83
2021/06/24 10:11:53;;;;;;;0.80;0.80;;;;;;;40.62;25.56;100074.06;6032738;23;20023;-85
2021/06/24 10:14:23;;;;;;;0.82;0.82;;;;;;;41.52;24.19;100072.78;6012824;23;20027;-84
2021/06/24 10:16:55;;;;;;;0.82;0.82;;;;;;;41.81;23.91;100078.31;6011388;23;20049;-85
2021/06/24 10:19:37;;;;;;;0.90;0.90;;;;;;;42.68;23.18;100077.28;6009207;23;20048;-82
2021/06/24 10:22:16;;;;;;;0.80;0.80;;;;;;;43.44;22.05;100080.41;6031318;23;20079;-84
2021/06/24 10:24:54;;;;;;;0.80;0.80;;;;;;;42.03;22.82;100096.16;5982810;23;20034;-84
2021/06/24 10:27:24;;;;;;;0.80;0.80;;;;;;;41.63;23.41;100082.50;6026105;23;20028;-82
2021/06/24 10:29:53;;;;;;;0.77;0.77;;;;;;;41.68;23.46;100091.63;5980685;23;20123;-83
2021/06/24 10:32:27;;;;;;;0.80;0.80;;;;;;;41.75;23.33;100076.84;6025037;23;20024;-85
2021/06/24 10:34:56;;;;;;;0.88;0.88;;;;;;;42.81;22.01;100081.75;6052436;23;20033;-83
2021/06/24 10:37:27;;;;;;;1.02;1.00;;;;;;;43.41;21.86;100075.47;6002435;23;20034;-84
2021/06/24 10:39:56;;;;;;;0.80;0.80;;;;;;;44.10;21.41;100074.19;6003364;23;20033;-85
2021/06/24 10:42:28;;;;;;;0.80;0.80;;;;;;;43.93;21.72;100069.66;6047906;23;20033;-84
2021/06/24 10:44:59;;;;;;;0.73;0.73;;;;;;;42.86;22.28;100081.53;6022478;23;20311;-83
2021/06/24 10:47:45;;;;;;;0.82;0.82;;;;;;;43.31;22.05;100069.09;6027526;23;20023;-83
2021/06/24 10:50:27;;;;;;;0.90;0.90;;;;;;;44.02;21.63;100075.19;5995548;23;20019;-82
2021/06/24 10:53:15;;;;;;;1.42;0.82;;;;;;;43.49;22.13;100065.97;6046542;23;20023;-84
2021/06/24 10:55:47;;;;;;;0.90;0.90;;;;;;;42.60;22.76;100066.81;5987518;23;20047;-82
2021/06/24 10:58:13;;;;;;;;;;;;;;;41.63;23.35;100065.47;6018897;23;20038;-82
2021/06/24 11:00:46;;;;;;;0.40;0.30;;;;;;;42.21;23.29;100057.81;6065286;23;19944;-81
2021/06/24 11:03:31;;;;;;;0.90;0.90;;;;;;;41.69;23.69;100055.56;5995081;23;20032;-82
2021/06/24 11:06:12;;;;;;;0.90;0.90;;;;;;;43.04;22.66;100056.47;6024247;23;20019;-84
2021/06/24 11:08:42;;;;;;;1.00;1.00;;;;;;;42.71;22.55;100065.22;6022174;23;20023;-83
2021/06/24 11:11:16;;;;;;;0.90;0.90;;;;;;;41.78;23.62;100050.59;6045354;23;20044;-81
2021/06/24 11:13:50;;;;;;;1.00;1.00;;;;;;;41.84;23.97;100049.22;6018754;23;20038;-82
2021/06/24 11:16:17;;;;;;;1.00;1.00;;;;;;;41.66;24.15;100054.25;6019960;23;20189;-80
2021/06/24 11:18:47;;;;;;;0.90;0.90;;;;;;;41.55;23.86;100052.19;6020775;23;20028;-84
2021/06/24 11:21:28;;;;;;;1.10;1.10;;;;;;;41.68;23.77;100056.72;6046965;23;20042;-85
2021/06/24 11:24:00;;;;;;;0.90;0.90;;;;;;;41.06;24.33;100057.59;6041368;23;20019;-83
2021/06/24 11:26:27;;;;;;;1.05;1.05;;;;;;;41.72;23.92;100049.16;5975840;23;20435;-84
2021/06/24 11:29:37;;;;;;;1.00;1.00;;;;;;;41.35;24.00;100048.19;6018832;23;20071;-83
2021/06/24 11:32:14;;;;;;;0.90;0.90;;;;;;;40.53;24.81;100056.28;5984552;23;20023;-83
2021/06/24 11:35:28;;;;;;;0.90;0.90;;;;;;;41.29;23.87;100049.59;6022380;23;20118;-84
2021/06/24 11:37:38;;;;;;;0.90;0.90;;;;;;;41.71;23.63;100047.50;6044891;23;20129;-83
2021/06/24 11:40:07;;;;;;;0.90;0.90;;;;;;;42.12;23.11;100042.88;6018688;23;20019;-85
2021/06/24 11:42:41;;;;;;;0.80;0.80;;;;;;;43.18;22.15;100043.88;6016159;23;20027;-83